Time;durP1;ratioP1;P1;durP2;ratioP2;P2;SDS_P1;SDS_P2;PMS_P1;PMS_P2;Temp;Humidity;BMP_temperature;BMP_pressure;BME280_temperature;BME280_humidity;BME280_pressure;Samples;Min_cycle;Max_cycle;Signal;HPM_P1;HPM_P2
2022/04/08 00:00:31;;;;;;;1.27;0.67;;;;;;;10.66;nan;68727.78;5074216;28;20220;-59
2022/04/08 00:02:57;;;;;;;1.07;0.70;;;;;;;10.69;nan;68731.09;5074498;28;20279;-60
2022/04/08 00:05:22;;;;;;;1.20;0.70;;;;;;;10.71;nan;68733.63;5074006;28;20246;-61
2022/04/08 00:07:50;;;;;;;1.77;0.63;;;;;;;10.74;nan;68736.06;5074306;28;20191;-60
2022/04/08 00:10:16;;;;;;;2.10;0.60;;;;;;;10.75;nan;68737.69;5074094;28;20196;-60
2022/04/08 00:12:41;;;;;;;1.60;0.70;;;;;;;10.74;nan;68737.13;5074333;28;20200;-45
2022/04/08 00:15:08;;;;;;;3.23;0.70;;;;;;;10.73;nan;68736.03;5073927;28;20195;-44
2022/04/08 00:17:33;;;;;;;0.70;0.70;;;;;;;10.72;nan;68733.69;5074151;28;20189;-44
2022/04/08 00:19:59;;;;;;;0.80;0.70;;;;;;;10.70;nan;68732.03;5074317;28;20278;-46
2022/04/08 00:22:25;;;;;;;0.73;0.73;;;;;;;10.68;nan;68728.31;5074275;28;20447;-44
2022/04/08 00:24:50;;;;;;;3.13;0.70;;;;;;;10.66;nan;68725.69;5073959;28;20311;-45
2022/04/08 00:27:15;;;;;;;0.77;0.77;;;;;;;10.64;nan;68722.88;5074084;28;20225;-45
2022/04/08 00:29:41;;;;;;;1.10;0.90;;;;;;;10.62;nan;68720.47;5077065;28;20188;-45
2022/04/08 00:32:06;;;;;;;2.43;0.83;;;;;;;10.60;nan;68718.56;5077345;28;20195;-45
2022/04/08 00:34:32;;;;;;;1.23;0.73;;;;;;;10.59;nan;68717.28;5077365;28;20221;-58
2022/04/08 00:36:57;;;;;;;1.63;0.60;;;;;;;10.58;nan;68715.72;5077579;28;20191;-58
2022/04/08 00:39:22;;;;;;;0.67;0.67;;;;;;;10.57;nan;68714.78;5077350;28;20184;-58
2022/04/08 00:41:48;;;;;;;0.87;0.73;;;;;;;10.56;nan;68714.13;5077354;28;20290;-57
2022/04/08 00:44:14;;;;;;;1.03;0.80;;;;;;;10.55;nan;68712.97;5094826;28;20204;-58
2022/04/08 00:46:39;;;;;;;1.53;0.60;;;;;;;10.53;nan;68710.84;5077336;28;20190;-57
2022/04/08 00:49:05;;;;;;;1.07;0.80;;;;;;;10.52;nan;68709.47;5077062;28;20196;-43
2022/04/08 00:51:33;;;;;;;1.00;0.90;;;;;;;10.50;nan;68707.56;5077271;28;20188;-46
2022/04/08 00:53:58;;;;;;;1.80;1.00;;;;;;;10.48;nan;68704.59;5077036;28;20268;-54
2022/04/08 00:56:24;;;;;;;2.27;1.40;;;;;;;10.46;nan;68702.50;5077009;28;20185;-52
2022/04/08 00:58:50;;;;;;;2.27;1.07;;;;;;;10.45;nan;68701.03;5076791;28;20195;-51
2022/04/08 01:01:16;;;;;;;1.90;1.10;;;;;;;10.44;nan;68699.72;5093973;28;20225;-51
2022/04/08 01:03:41;;;;;;;2.27;0.90;;;;;;;10.42;nan;68698.44;5077061;28;20302;-52
2022/04/08 01:06:06;;;;;;;2.57;1.30;;;;;;;10.40;nan;68696.03;5076856;28;20218;-51
2022/04/08 01:08:34;;;;;;;1.93;1.10;;;;;;;10.38;nan;68694.09;5077045;28;20191;-43
2022/04/08 01:11:00;;;;;;;1.90;1.00;;;;;;;10.36;nan;68691.47;5093692;28;20188;-50
2022/04/08 01:13:25;;;;;;;3.00;1.00;;;;;;;10.34;nan;68689.22;5076394;28;20196;-55
2022/04/08 01:15:51;;;;;;;2.03;1.07;;;;;;;10.33;nan;68687.75;5076504;28;20187;-53
2022/04/08 01:18:16;;;;;;;1.70;0.90;;;;;;;10.30;nan;68685.94;5076831;28;20189;-51
2022/04/08 01:20:41;;;;;;;4.07;1.10;;;;;;;10.29;nan;68683.94;5076909;28;20185;-53
2022/04/08 01:23:07;;;;;;;2.33;0.87;;;;;;;10.36;nan;68691.84;5076739;28;20195;-54
2022/04/08 01:25:33;;;;;;;2.23;1.20;;;;;;;10.38;nan;68694.84;5076465;28;20241;-53
2022/04/08 01:27:58;;;;;;;1.37;1.10;;;;;;;10.40;nan;68697.50;5076563;28;20205;-49
2022/04/08 01:30:23;;;;;;;2.17;1.30;;;;;;;10.42;nan;68699.88;5076349;28;20249;-44
2022/04/08 01:32:49;;;;;;;1.20;1.00;;;;;;;10.43;nan;68699.47;5076526;28;20259;-47
2022/04/08 01:35:14;;;;;;;1.53;1.17;;;;;;;10.42;nan;68698.50;5076425;28;20195;-46
2022/04/08 01:37:39;;;;;;;2.53;1.10;;;;;;;10.41;nan;68697.66;5076528;28;20259;-47
2022/04/08 01:40:05;;;;;;;1.80;1.00;;;;;;;10.40;nan;68695.81;5075297;28;20184;-47
2022/04/08 01:42:31;;;;;;;1.53;1.07;;;;;;;10.39;nan;68694.88;5075808;28;20192;-43
2022/04/08 01:44:56;;;;;;;2.00;1.00;;;;;;;10.38;nan;68693.97;5076055;28;20208;-50
2022/04/08 01:47:22;;;;;;;2.47;1.20;;;;;;;10.36;nan;68691.84;5076248;28;20240;-46
2022/04/08 01:49:48;;;;;;;1.27;1.10;;;;;;;10.34;nan;68689.47;5076419;28;20214;-45
2022/04/08 01:52:14;;;;;;;3.23;1.10;;;;;;;10.31;nan;68686.69;5076065;28;20184;-46
2022/04/08 01:54:40;;;;;;;4.80;1.03;;;;;;;10.30;nan;68684.78;5075912;28;20196;-44
2022/04/08 01:57:05;;;;;;;1.20;1.10;;;;;;;10.26;nan;68680.47;5075737;28;20201;-47
2022/04/08 01:59:30;;;;;;;2.10;1.50;;;;;;;10.23;nan;68677.59;5075950;28;20266;-45
2022/04/08 02:01:56;;;;;;;3.17;1.50;;;;;;;10.22;nan;68675.75;5075971;28;20181;-45
2022/04/08 02:04:22;;;;;;;3.07;1.60;;;;;;;10.20;nan;68673.94;5075940;28;20215;-47
2022/04/08 02:06:47;;;;;;;3.03;1.40;;;;;;;10.19;nan;68672.13;5075974;28;20192;-55
2022/04/08 02:09:12;;;;;;;3.90;1.40;;;;;;;10.17;nan;68670.13;5075763;28;20187;-54
2022/04/08 02:11:38;;;;;;;2.30;1.30;;;;;;;10.15;nan;68667.44;5093491;28;20192;-53
2022/04/08 02:14:04;;;;;;;3.07;1.63;;;;;;;10.13;nan;68664.97;5075669;28;20200;-54
2022/04/08 02:16:30;;;;;;;4.17;1.50;;;;;;;10.10;nan;68662.59;5075674;28;20233;-55
2022/04/08 02:18:56;;;;;;;3.07;1.80;;;;;;;10.10;nan;68662.09;5075523;28;20184;-54
2022/04/08 02:21:22;;;;;;;4.40;1.73;;;;;;;10.09;nan;68662.00;5075853;28;20205;-64
2022/04/08 02:23:49;;;;;;;2.27;1.33;;;;;;;10.10;nan;68663.44;5075916;28;20176;-60
2022/04/08 02:26:16;;;;;;;3.17;1.47;;;;;;;10.11;nan;68664.00;5075360;28;20206;-64
2022/04/08 02:28:45;;;;;;;3.83;1.90;;;;;;;10.10;nan;68662.72;5075647;28;20188;-66
2022/04/08 02:31:11;;;;;;;8.23;3.67;;;;;;;10.09;nan;68661.16;5075572;28;20187;-65
2022/04/08 02:33:36;;;;;;;3.97;2.20;;;;;;;10.08;nan;68660.22;5075825;28;20236;-66
2022/04/08 02:36:03;;;;;;;3.63;1.43;;;;;;;10.07;nan;68659.28;5075234;28;20294;-65
2022/04/08 02:38:28;;;;;;;5.67;1.70;;;;;;;10.06;nan;68658.91;5075407;28;20183;-66
2022/04/08 02:40:53;;;;;;;5.70;1.67;;;;;;;10.05;nan;68657.41;5075282;28;20213;-65
2022/04/08 02:43:19;;;;;;;2.97;1.60;;;;;;;10.04;nan;68656.47;5075315;28;20179;-46
2022/04/08 02:45:44;;;;;;;3.67;1.90;;;;;;;10.03;nan;68656.09;5074982;28;20204;-47
2022/04/08 02:48:09;;;;;;;6.47;2.53;;;;;;;10.02;nan;68654.63;5075278;28;20195;-47
2022/04/08 02:50:35;;;;;;;5.77;2.83;;;;;;;10.00;nan;68652.53;5074791;28;20295;-47
2022/04/08 02:53:00;;;;;;;6.07;2.07;;;;;;;9.99;nan;68651.59;5075219;28;20226;-47
2022/04/08 02:55:25;;;;;;;6.20;2.67;;;;;;;9.98;nan;68650.31;5075035;28;20198;-49
2022/04/08 02:57:51;;;;;;;6.17;2.47;;;;;;;9.97;nan;68648.88;5075020;28;20245;-51
2022/04/08 03:00:18;;;;;;;2.60;1.70;;;;;;;9.94;nan;68645.84;5074991;28;20192;-44
2022/04/08 03:02:45;;;;;;;6.50;2.53;;;;;;;9.91;nan;68642.66;5075150;28;20191;-59
2022/04/08 03:05:11;;;;;;;2.67;1.80;;;;;;;9.88;nan;68640.13;5074751;28;20302;-60
2022/04/08 03:07:37;;;;;;;5.20;2.77;;;;;;;9.86;nan;68636.91;5074851;28;20183;-59
2022/04/08 03:10:07;;;;;;;6.17;1.53;;;;;;;9.82;nan;68633.16;5074789;28;20191;-59
2022/04/08 03:12:32;;;;;;;4.20;1.67;;;;;;;9.79;nan;68629.06;5074851;28;20191;-59
2022/04/08 03:14:59;;;;;;;5.70;2.37;;;;;;;9.75;nan;68624.75;5074684;28;20196;-58
2022/04/08 03:17:25;;;;;;;6.03;2.10;;;;;;;9.72;nan;68621.16;5074712;28;20195;-47
2022/04/08 03:19:51;;;;;;;6.63;4.10;;;;;;;9.69;nan;68617.50;5074930;28;20273;-66
2022/04/08 03:22:19;;;;;;;7.10;2.70;;;;;;;9.67;nan;68614.91;5074869;28;20220;-66
2022/04/08 03:24:45;;;;;;;6.90;2.80;;;;;;;9.64;nan;68612.50;5074612;28;20581;-66
2022/04/08 03:27:11;;;;;;;6.30;1.87;;;;;;;9.61;nan;68609.28;5074558;28;20184;-65
2022/04/08 03:29:36;;;;;;;4.47;2.00;;;;;;;9.59;nan;68606.69;5074841;28;20202;-68
2022/04/08 03:32:02;;;;;;;3.47;1.77;;;;;;;9.55;nan;68601.94;5074811;28;20176;-65
2022/04/08 03:34:28;;;;;;;5.87;2.00;;;;;;;9.52;nan;68598.63;5074652;28;20215;-53
2022/04/08 03:36:53;;;;;;;4.63;2.23;;;;;;;9.49;nan;68594.84;5074833;28;20219;-59
2022/04/08 03:39:20;;;;;;;9.83;2.10;;;;;;;9.47;nan;68592.66;5074159;28;20324;-45
2022/04/08 03:41:45;;;;;;;6.97;1.70;;;;;;;9.44;nan;68590.16;5074312;28;20190;-51
2022/04/08 03:44:10;;;;;;;4.37;1.63;;;;;;;9.41;nan;68586.31;5074337;28;20209;-47
2022/04/08 03:46:36;;;;;;;4.97;1.77;;;;;;;9.38;nan;68582.38;5092305;28;20186;-45
2022/04/08 03:49:01;;;;;;;5.07;1.90;;;;;;;9.35;nan;68579.88;5074915;28;20194;-43
2022/04/08 03:51:26;;;;;;;5.03;2.57;;;;;;;9.33;nan;68577.66;5074559;28;20211;-44
2022/04/08 03:53:51;;;;;;;5.90;1.83;;;;;;;9.31;nan;68575.19;5074429;28;20189;-59
2022/04/08 03:56:17;;;;;;;4.63;1.80;;;;;;;9.30;nan;68573.53;5074387;28;20282;-69
2022/04/08 03:58:43;;;;;;;5.73;1.80;;;;;;;9.27;nan;68570.94;5074531;28;20185;-66
2022/04/08 04:01:08;;;;;;;5.00;1.67;;;;;;;9.25;nan;68569.00;5074840;28;20198;-66
2022/04/08 04:03:34;;;;;;;6.57;1.80;;;;;;;9.24;nan;68568.25;5075942;28;20187;-66
2022/04/08 04:06:01;;;;;;;8.23;1.90;;;;;;;9.23;nan;68566.47;5077948;28;20306;-65
2022/04/08 04:08:26;;;;;;;4.03;1.53;;;;;;;9.21;nan;68564.28;5077735;28;20223;-66
2022/04/08 04:10:51;;;;;;;4.37;1.77;;;;;;;9.19;nan;68562.78;5077581;28;20283;-64
2022/04/08 04:13:17;;;;;;;5.97;1.77;;;;;;;9.17;nan;68560.22;5077726;28;20194;-67
2022/04/08 04:15:42;;;;;;;4.33;1.67;;;;;;;9.14;nan;68557.09;5077328;28;20198;-47
2022/04/08 04:18:08;;;;;;;4.33;1.70;;;;;;;9.13;nan;68556.44;5077702;28;20180;-48
2022/04/08 04:20:34;;;;;;;4.87;1.57;;;;;;;9.13;nan;68555.72;5077594;28;20183;-44
2022/04/08 04:22:59;;;;;;;3.10;1.50;;;;;;;9.12;nan;68554.56;5077624;28;20209;-45
2022/04/08 04:25:26;;;;;;;3.47;1.50;;;;;;;9.11;nan;68553.47;5076998;28;20213;-46
2022/04/08 04:27:51;;;;;;;9.73;2.40;;;;;;;9.11;nan;68553.28;5077531;28;20195;-47
2022/04/08 04:30:16;;;;;;;4.23;1.63;;;;;;;9.11;nan;68552.41;5077599;28;20247;-44
2022/04/08 04:32:42;;;;;;;5.40;2.03;;;;;;;9.10;nan;68551.47;5077542;28;20221;-46
2022/04/08 04:35:08;;;;;;;5.97;2.30;;;;;;;9.10;nan;68552.16;5077430;28;20196;-59
2022/04/08 04:37:37;;;;;;;5.60;1.63;;;;;;;9.10;nan;68551.81;5077296;28;20184;-59
2022/04/08 04:40:04;;;;;;;3.87;1.80;;;;;;;9.10;nan;68552.06;5077204;28;20321;-59
2022/04/08 04:42:29;;;;;;;2.87;1.50;;;;;;;9.09;nan;68551.41;5076979;28;20300;-59
2022/04/08 04:44:56;;;;;;;4.97;1.57;;;;;;;9.09;nan;68550.69;5076939;28;20280;-59
2022/04/08 04:47:22;;;;;;;5.27;1.60;;;;;;;9.09;nan;68551.19;5076925;28;20187;-59
2022/04/08 04:49:47;;;;;;;2.53;1.40;;;;;;;9.09;nan;68551.53;5077360;28;20183;-43
2022/04/08 04:52:12;;;;;;;4.07;1.50;;;;;;;9.09;nan;68551.34;5077097;28;20188;-60
2022/04/08 04:54:38;;;;;;;7.67;1.50;;;;;;;9.10;nan;68551.63;5077049;28;20243;-59
2022/04/08 04:57:03;;;;;;;5.00;1.90;;;;;;;9.10;nan;68552.34;5076954;28;20223;-59
2022/04/08 04:59:29;;;;;;;4.90;1.40;;;;;;;9.11;nan;68553.13;5076808;28;20191;-59
2022/04/08 05:01:54;;;;;;;2.83;1.80;;;;;;;9.12;nan;68554.50;5077053;28;20266;-59
2022/04/08 05:04:20;;;;;;;5.70;2.03;;;;;;;9.13;nan;68555.03;5076832;28;20208;-60
2022/04/08 05:06:45;;;;;;;3.53;1.50;;;;;;;9.15;nan;68557.16;5093707;28;20173;-46
2022/04/08 05:09:10;;;;;;;6.57;1.87;;;;;;;9.16;nan;68559.19;5076790;28;20233;-53
2022/04/08 05:11:36;;;;;;;3.93;1.77;;;;;;;9.17;nan;68560.31;5076787;28;20254;-47
2022/04/08 05:14:01;;;;;;;5.90;2.27;;;;;;;9.19;nan;68562.69;5076130;28;20219;-49
2022/04/08 05:16:29;;;;;;;3.97;1.70;;;;;;;9.21;nan;68564.72;5076293;28;20289;-46
2022/04/08 05:18:55;;;;;;;5.23;1.80;;;;;;;9.22;nan;68565.72;5076274;28;20195;-47
2022/04/08 05:21:21;;;;;;;7.43;2.00;;;;;;;9.21;nan;68564.66;5076612;28;20241;-46
2022/04/08 05:23:46;;;;;;;4.07;2.00;;;;;;;9.23;nan;68566.75;5076767;28;20244;-49
2022/04/08 05:26:12;;;;;;;5.63;1.70;;;;;;;9.24;nan;68568.13;5076469;28;20205;-60
2022/04/08 05:28:37;;;;;;;4.80;2.07;;;;;;;9.25;nan;68569.56;5076320;28;20183;-60
2022/04/08 05:31:03;;;;;;;4.37;1.60;;;;;;;9.27;nan;68571.69;5076343;28;20198;-60
2022/04/08 05:33:28;;;;;;;3.13;1.67;;;;;;;9.29;nan;68574.50;5076382;28;20223;-61
2022/04/08 05:35:54;;;;;;;3.07;1.60;;;;;;;9.30;nan;68576.06;5076757;28;20202;-59
2022/04/08 05:38:19;;;;;;;4.43;1.80;;;;;;;9.30;nan;68575.63;5076353;28;20195;-60
2022/04/08 05:40:44;;;;;;;5.07;1.60;;;;;;;9.30;nan;68575.78;5076347;28;20186;-60
2022/04/08 05:43:10;;;;;;;7.53;1.93;;;;;;;9.31;nan;68577.16;5075943;28;20192;-46
2022/04/08 05:45:35;;;;;;;5.37;1.70;;;;;;;9.32;nan;68577.09;5076132;28;20235;-48
2022/04/08 05:48:05;;;;;;;3.60;1.83;;;;;;;9.31;nan;68576.22;5075875;28;20206;-46
2022/04/08 05:50:31;;;;;;;4.83;1.80;;;;;;;9.31;nan;68575.88;5092908;28;20287;-49
2022/04/08 05:52:56;;;;;;;4.20;1.67;;;;;;;9.31;nan;68575.25;5075632;28;20214;-46
2022/04/08 05:55:21;;;;;;;7.90;2.17;;;;;;;9.33;nan;68577.97;5076290;28;20179;-45
2022/04/08 05:57:47;;;;;;;4.97;2.00;;;;;;;9.34;nan;68579.19;5075915;28;20184;-47
2022/04/08 06:00:15;;;;;;;4.03;1.90;;;;;;;9.36;nan;68581.56;5076104;28;20211;-50
2022/04/08 06:02:45;;;;;;;5.50;2.17;;;;;;;9.37;nan;68582.50;5075624;28;20190;-60
2022/04/08 06:05:11;;;;;;;6.03;2.10;;;;;;;9.39;nan;68584.34;5075690;28;20204;-55
2022/04/08 06:07:47;;;;;;;3.77;1.60;;;;;;;9.39;nan;68585.16;5075810;28;20191;-55
2022/04/08 06:10:13;;;;;;;4.23;1.60;;;;;;;9.40;nan;68586.13;5092720;28;20185;-52
2022/04/08 06:12:39;;;;;;;3.97;1.87;;;;;;;9.41;nan;68587.16;5076045;28;20192;-54
2022/04/08 06:15:05;;;;;;;6.73;1.90;;;;;;;9.42;nan;68588.97;5075638;28;20208;-55
2022/04/08 06:17:37;;;;;;;3.93;1.73;;;;;;;9.46;nan;68593.56;5075356;28;20218;-55
2022/04/08 06:20:10;;;;;;;6.53;2.17;;;;;;;9.49;nan;68597.06;5075690;28;20337;-59
2022/04/08 06:22:39;;;;;;;6.10;2.17;;;;;;;9.52;nan;68599.88;5075799;28;20278;-49
2022/04/08 06:25:10;;;;;;;7.00;2.13;;;;;;;9.54;nan;68602.59;5075448;28;20213;-50
2022/04/08 06:27:35;;;;;;;8.07;2.27;;;;;;;9.53;nan;68602.31;5074947;28;20183;-49
2022/04/08 06:30:03;;;;;;;5.27;1.87;;;;;;;9.53;nan;68602.19;5075321;28;20275;-55
2022/04/08 06:32:28;;;;;;;5.47;2.00;;;;;;;9.52;nan;68601.38;5075171;28;20173;-46
2022/04/08 06:34:54;;;;;;;5.63;1.83;;;;;;;9.52;nan;68601.88;5075221;28;20248;-47
2022/04/08 06:37:19;;;;;;;4.70;1.80;;;;;;;9.53;nan;68603.00;5075090;28;20194;-48
2022/04/08 06:39:46;;;;;;;3.97;1.63;;;;;;;9.54;nan;68603.91;5075301;28;20215;-53
2022/04/08 06:42:12;;;;;;;4.20;1.80;;;;;;;9.54;nan;68603.41;5075249;28;20187;-60
2022/04/08 06:44:37;;;;;;;4.67;2.20;;;;;;;9.55;nan;68604.16;5075399;28;20228;-60
2022/04/08 06:47:02;;;;;;;4.70;2.60;;;;;;;9.55;nan;68604.34;5075218;28;20200;-59
2022/04/08 06:49:28;;;;;;;4.83;2.20;;;;;;;9.56;nan;68605.34;5075226;28;20187;-60
2022/04/08 06:51:58;;;;;;;6.17;2.50;;;;;;;9.57;nan;68606.72;5075229;28;20188;-60
2022/04/08 06:54:23;;;;;;;5.50;2.03;;;;;;;9.59;nan;68608.72;5075070;28;20248;-60
2022/04/08 06:56:49;;;;;;;3.30;1.67;;;;;;;9.61;nan;68610.66;5074899;28;20187;-46
2022/04/08 06:59:14;;;;;;;3.13;2.03;;;;;;;9.61;nan;68611.66;5075176;28;20238;-48
2022/04/08 07:01:39;;;;;;;8.03;2.10;;;;;;;9.62;nan;68612.91;5093241;28;20506;-59
2022/04/08 07:04:05;;;;;;;4.83;1.70;;;;;;;9.63;nan;68613.41;5074854;28;20188;-59
2022/04/08 07:06:30;;;;;;;5.53;2.17;;;;;;;9.65;nan;68615.84;5074940;28;20231;-59
2022/04/08 07:08:55;;;;;;;3.47;1.70;;;;;;;9.65;nan;68615.78;5074747;28;20179;-59
2022/04/08 07:11:20;;;;;;;6.33;1.70;;;;;;;9.67;nan;68617.78;5074665;28;20176;-59
2022/04/08 07:13:46;;;;;;;5.40;1.90;;;;;;;9.68;nan;68619.06;5075049;28;20207;-60
2022/04/08 07:16:11;;;;;;;4.83;1.80;;;;;;;9.69;nan;68620.72;5075007;28;20183;-56
2022/04/08 07:18:36;;;;;;;5.57;1.80;;;;;;;9.68;nan;68619.91;5075160;28;20176;-46
2022/04/08 07:21:02;;;;;;;4.23;1.80;;;;;;;9.68;nan;68619.94;5074654;28;20187;-46
2022/04/08 07:23:27;;;;;;;4.70;1.50;;;;;;;9.69;nan;68620.78;5074648;28;20188;-47
2022/04/08 07:25:53;;;;;;;3.73;1.63;;;;;;;9.71;nan;68622.72;5074517;28;20208;-51
2022/04/08 07:28:18;;;;;;;5.17;1.83;;;;;;;9.73;nan;68625.22;5074702;28;20191;-45
2022/04/08 07:30:43;;;;;;;3.43;1.53;;;;;;;9.76;nan;68629.06;5074388;28;20203;-48
2022/04/08 07:33:09;;;;;;;5.63;1.80;;;;;;;9.80;nan;68633.19;5074746;28;20180;-47
2022/04/08 07:35:37;;;;;;;5.17;1.80;;;;;;;9.86;nan;68639.72;5074442;28;20202;-47
2022/04/08 07:38:03;;;;;;;4.50;2.13;;;;;;;9.93;nan;68648.03;5073255;28;20214;-56
2022/04/08 07:40:29;;;;;;;6.77;2.00;;;;;;;10.01;nan;68656.03;5074172;28;20193;-56
2022/04/08 07:42:54;;;;;;;2.77;1.53;;;;;;;10.06;nan;68662.47;5074285;28;20200;-57
2022/04/08 07:45:19;;;;;;;7.43;2.10;;;;;;;10.10;nan;68667.16;5092155;28;20208;-57
2022/04/08 07:47:45;;;;;;;4.37;1.90;;;;;;;10.16;nan;68672.97;5074741;28;20184;-54
2022/04/08 07:50:13;;;;;;;7.77;1.90;;;;;;;10.22;nan;68679.66;5074350;28;20188;-55
2022/04/08 07:52:39;;;;;;;4.50;2.03;;;;;;;10.26;nan;68684.75;5074488;28;20284;-56
2022/04/08 07:55:06;;;;;;;3.03;1.80;;;;;;;10.30;nan;68688.94;5074249;28;20192;-58
2022/04/08 07:57:31;;;;;;;2.30;1.63;;;;;;;10.34;nan;68693.38;5074069;28;20180;-53
2022/04/08 07:59:57;;;;;;;2.47;1.77;;;;;;;10.38;nan;68698.06;5074196;28;20197;-51
2022/04/08 08:02:23;;;;;;;4.10;2.10;;;;;;;10.45;nan;68705.44;5074258;28;20215;-51
2022/04/08 08:04:49;;;;;;;2.10;1.80;;;;;;;10.51;nan;68712.28;5074060;28;20243;-51
2022/04/08 08:07:14;;;;;;;4.67;2.00;;;;;;;10.56;nan;68718.06;5074441;28;20188;-50
2022/04/08 08:09:40;;;;;;;4.33;2.00;;;;;;;10.62;nan;68724.16;5073815;28;20192;-48
2022/04/08 08:12:05;;;;;;;3.23;1.73;;;;;;;10.69;nan;68731.94;5074276;28;20191;-56
2022/04/08 08:14:31;;;;;;;5.10;1.80;;;;;;;10.74;nan;68738.09;5073608;28;20190;-60
2022/04/08 08:16:57;;;;;;;5.93;1.97;;;;;;;10.80;nan;68744.63;5074052;28;20181;-61
2022/04/08 08:19:23;;;;;;;5.33;2.50;;;;;;;10.86;nan;68751.88;5073975;28;20242;-63
2022/04/08 08:21:48;;;;;;;3.63;2.07;;;;;;;10.90;nan;68757.19;5073799;28;20199;-61
2022/04/08 08:24:13;;;;;;;4.13;1.93;;;;;;;10.95;nan;68763.06;5073955;28;20193;-62
2022/04/08 08:26:39;;;;;;;3.37;2.03;;;;;;;10.99;nan;68767.84;5074112;28;20233;-61
2022/04/08 08:29:05;;;;;;;6.53;4.37;;;;;;;11.02;nan;68771.66;5073724;28;20201;-50
2022/04/08 08:31:30;;;;;;;2.37;2.07;;;;;;;11.06;nan;68775.97;5073679;28;20265;-52
2022/04/08 08:33:55;;;;;;;2.73;1.80;;;;;;;11.10;nan;68780.56;5073789;28;20242;-57
2022/04/08 08:36:22;;;;;;;2.97;1.77;;;;;;;11.14;nan;68785.59;5073860;28;20185;-54
2022/04/08 08:38:47;;;;;;;2.87;1.90;;;;;;;11.18;nan;68789.75;5091749;28;20181;-52
2022/04/08 08:41:13;;;;;;;4.00;1.67;;;;;;;11.21;nan;68793.53;5073642;28;20173;-54
2022/04/08 08:43:38;;;;;;;3.10;1.93;;;;;;;11.24;nan;68796.84;5090929;28;20181;-52
2022/04/08 08:46:04;;;;;;;3.60;2.07;;;;;;;11.28;nan;68800.53;5073724;28;20283;-50
2022/04/08 08:48:35;;;;;;;2.83;1.80;;;;;;;11.31;nan;68803.88;5073853;28;20241;-66
2022/04/08 08:51:05;;;;;;;3.97;1.70;;;;;;;11.33;nan;68805.97;5077540;28;20196;-59
2022/04/08 08:53:31;;;;;;;6.13;2.07;;;;;;;11.36;nan;68809.56;5076905;28;20192;-59
2022/04/08 08:55:56;;;;;;;2.73;1.90;;;;;;;11.39;nan;68813.06;5077008;28;20180;-58
2022/04/08 08:58:23;;;;;;;2.43;1.60;;;;;;;11.43;nan;68818.09;5077001;28;20188;-59
2022/04/08 09:00:48;;;;;;;3.27;1.47;;;;;;;11.48;nan;68823.69;5077102;28;20183;-59
2022/04/08 09:03:14;;;;;;;1.57;1.40;;;;;;;11.53;nan;68829.66;5076577;28;20177;-59
2022/04/08 09:05:44;;;;;;;2.97;1.60;;;;;;;11.58;nan;68835.53;5076723;28;20200;-59
2022/04/08 09:08:11;;;;;;;2.43;1.90;;;;;;;11.64;nan;68842.38;5076637;28;20234;-65
2022/04/08 09:10:37;;;;;;;3.97;1.90;;;;;;;11.71;nan;68850.13;5076833;28;20186;-46
2022/04/08 09:13:04;;;;;;;5.33;2.07;;;;;;;11.78;nan;68858.00;5076785;28;20195;-48
2022/04/08 09:15:31;;;;;;;21.97;7.77;;;;;;;11.85;nan;68866.19;5076550;28;20188;-46
2022/04/08 09:18:13;;;;;;;8.30;2.97;;;;;;;11.91;nan;68873.34;5076897;28;20176;-44
2022/04/08 09:20:44;;;;;;;4.90;2.07;;;;;;;11.98;nan;68881.75;5076783;28;20191;-47
2022/04/08 09:23:10;;;;;;;3.40;1.70;;;;;;;12.09;nan;68894.28;5076599;28;20188;-44
2022/04/08 09:25:37;;;;;;;2.70;1.87;;;;;;;12.18;nan;68904.53;5076491;28;20242;-44
2022/04/08 09:28:11;;;;;;;2.27;1.80;;;;;;;12.26;nan;68912.72;5076641;28;20211;-60
2022/04/08 09:30:37;;;;;;;5.27;2.27;;;;;;;12.31;nan;68918.38;5076343;28;20269;-59
2022/04/08 09:33:21;;;;;;;3.30;1.90;;;;;;;12.37;nan;68925.06;5076206;28;20175;-60
2022/04/08 09:35:47;;;;;;;4.63;2.70;;;;;;;12.44;nan;68933.00;5076561;28;20177;-61
2022/04/08 09:38:21;;;;;;;2.70;1.80;;;;;;;12.52;nan;68942.75;5076681;28;20172;-60
2022/04/08 09:40:49;;;;;;;4.80;2.13;;;;;;;12.60;nan;68951.50;5076110;28;20189;-60
2022/04/08 09:43:16;;;;;;;4.23;2.03;;;;;;;12.66;nan;68958.59;5076300;28;20182;-66
2022/04/08 09:45:43;;;;;;;2.60;2.10;;;;;;;12.72;nan;68965.19;5076112;28;20203;-52
2022/04/08 09:48:09;;;;;;;3.20;1.70;;;;;;;12.77;nan;68970.28;5076132;28;20213;-52
2022/04/08 09:50:37;;;;;;;3.57;1.97;;;;;;;12.80;nan;68974.06;5075955;28;20183;-49
2022/04/08 09:53:04;;;;;;;3.00;1.70;;;;;;;12.85;nan;68979.19;5076207;28;20191;-48
2022/04/08 09:55:29;;;;;;;3.50;1.80;;;;;;;12.89;nan;68983.19;5076050;28;20191;-50
2022/04/08 09:58:03;;;;;;;3.90;2.13;;;;;;;12.93;nan;68987.91;5075775;28;20186;-50
2022/04/08 10:00:28;;;;;;;4.37;2.50;;;;;;;12.97;nan;68993.06;5075085;28;20182;-48
2022/04/08 10:02:56;;;;;;;3.57;2.00;;;;;;;13.02;nan;68998.53;5076112;28;20186;-45
2022/04/08 10:05:25;;;;;;;5.97;2.97;;;;;;;13.07;nan;69004.34;5075920;28;20285;-47
2022/04/08 10:07:53;;;;;;;4.17;2.80;;;;;;;13.14;nan;69011.75;5075819;28;20187;-44
2022/04/08 10:10:31;;;;;;;3.30;1.90;;;;;;;13.20;nan;69018.88;5075680;28;20205;-46
2022/04/08 10:13:21;;;;;;;2.17;1.90;;;;;;;13.25;nan;69024.22;5075952;28;20191;-46
2022/04/08 10:15:59;;;;;;;3.33;2.10;;;;;;;13.25;nan;69024.47;5075544;28;20188;-47
2022/04/08 10:18:33;;;;;;;4.20;2.40;;;;;;;13.23;nan;69023.00;5075667;28;20172;-46
2022/04/08 10:20:59;;;;;;;4.00;2.20;;;;;;;13.22;nan;69022.31;5093506;28;20189;-45
2022/04/08 10:23:34;;;;;;;3.00;1.87;;;;;;;13.18;nan;69016.97;5093533;28;20239;-44
2022/04/08 10:26:00;;;;;;;4.30;2.43;;;;;;;13.15;nan;69013.56;5075488;28;20254;-44
2022/04/08 10:28:35;;;;;;;4.40;1.70;;;;;;;13.10;nan;69008.22;5075392;28;20273;-44
2022/04/08 10:31:00;;;;;;;2.80;2.23;;;;;;;13.05;nan;69001.97;5075396;28;20188;-45
2022/04/08 10:33:29;;;;;;;3.53;2.50;;;;;;;13.01;nan;68997.81;5075303;28;20181;-44
2022/04/08 10:36:00;;;;;;;5.37;2.80;;;;;;;12.96;nan;68992.53;5075223;28;20193;-43
2022/04/08 10:38:35;;;;;;;3.63;2.27;;;;;;;12.92;nan;68988.03;5075108;28;20194;-65
2022/04/08 10:41:01;;;;;;;2.27;1.70;;;;;;;12.88;nan;68982.75;5075547;28;20204;-52
2022/04/08 10:43:27;;;;;;;4.00;2.00;;;;;;;12.84;nan;68979.16;5075624;28;20230;-53
2022/04/08 10:45:58;;;;;;;3.07;1.83;;;;;;;12.80;nan;68974.34;5075481;28;20296;-52
2022/04/08 10:48:31;;;;;;;2.17;1.80;;;;;;;12.77;nan;68970.06;5075564;28;20259;-52
2022/04/08 10:51:14;;;;;;;3.33;1.97;;;;;;;12.73;nan;68966.19;5092296;28;20281;-53
2022/04/08 10:53:42;;;;;;;3.70;1.70;;;;;;;12.71;nan;68963.59;5075113;28;20183;-54
2022/04/08 10:56:12;;;;;;;3.60;2.10;;;;;;;12.69;nan;68961.53;5074995;28;20197;-61
2022/04/08 10:58:42;;;;;;;3.83;2.37;;;;;;;12.66;nan;68958.94;5075306;28;20240;-63
2022/04/08 11:01:24;;;;;;;2.27;1.80;;;;;;;12.66;nan;68959.22;5075243;28;20275;-58
2022/04/08 11:04:01;;;;;;;4.70;2.00;;;;;;;12.65;nan;68958.00;5075098;28;20189;-59
2022/04/08 11:06:29;;;;;;;5.90;2.00;;;;;;;12.62;nan;68954.97;5074941;28;20208;-60
2022/04/08 11:08:56;;;;;;;3.93;2.10;;;;;;;12.59;nan;68951.53;5075208;28;20181;-59
2022/04/08 11:11:33;;;;;;;3.33;2.20;;;;;;;12.57;nan;68948.72;5074903;28;20271;-59
2022/04/08 11:14:00;;;;;;;3.17;2.37;;;;;;;12.54;nan;68945.91;5074806;28;20195;-60
2022/04/08 11:16:31;;;;;;;2.77;2.17;;;;;;;12.52;nan;68943.03;5074619;28;20185;-60
2022/04/08 11:18:57;;;;;;;5.93;2.97;;;;;;;12.50;nan;68941.22;5074700;28;20199;-46
2022/04/08 11:21:25;;;;;;;4.37;2.90;;;;;;;12.51;nan;68942.50;5074780;28;20266;-44
2022/04/08 11:24:05;;;;;;;4.37;2.67;;;;;;;12.54;nan;68946.16;5074682;28;20185;-45
2022/04/08 11:26:39;;;;;;;3.13;2.67;;;;;;;12.57;nan;68949.94;5074424;28;20217;-45
2022/04/08 11:29:15;;;;;;;3.43;2.43;;;;;;;12.59;nan;68951.88;5074859;28;20247;-46
2022/04/08 11:31:40;;;;;;;2.70;2.30;;;;;;;12.61;nan;68955.03;5074516;28;20279;-44
2022/04/08 11:34:06;;;;;;;2.37;1.90;;;;;;;12.61;nan;68954.56;5074603;28;20271;-48
2022/04/08 11:36:34;;;;;;;2.37;2.10;;;;;;;12.59;nan;68952.34;5074013;28;20190;-69
2022/04/08 11:38:59;;;;;;;3.63;2.27;;;;;;;12.58;nan;68951.44;5074333;28;20189;-69
2022/04/08 11:41:27;;;;;;;2.47;2.10;;;;;;;12.59;nan;68952.63;5074091;28;20272;-68
2022/04/08 11:43:54;;;;;;;3.17;2.47;;;;;;;12.57;nan;68950.50;5074623;28;20183;-67
2022/04/08 11:46:19;;;;;;;3.47;2.13;;;;;;;12.53;nan;68945.91;5074228;28;20214;-66
2022/04/08 11:48:44;;;;;;;4.37;2.60;;;;;;;12.51;nan;68943.97;5074400;28;20184;-75
2022/04/08 11:51:10;;;;;;;5.50;2.30;;;;;;;12.51;nan;68943.88;5074323;28;20195;-58